Terminal Aerodrome Forecast
Issued by NWS Brownsville, TX

Home | Current Version | Previous Version | Text Only | Print | Product List | Glossary On
Versions: 1 2 3 4 5 6 7 8 9 10 11 12 13 14 15
000
FTUS44 KBRO 280529
TAFBRO
TAF
KBRO 280529Z 2806/0106 15015KT P6SM BKN010
     FM281500 16015G20KT P6SM BKN025
     FM281800 16020KT P6SM SKC
     FM010300 15010KT P6SM BKN015=

USA.gov is the U.S. government's official web portal to all federal, state and local government web resources and services.